< Cyclone 197602 1976 Season Cyclone 197604 >
Cyclone 197603 (KIM)
General InformationTrack Information on Google MapsDetailed Wind Information || ResourceGoogle EarthGE AnimationAtom FeedGeoJSON
Detalied Best Track (Time Zone = UTC)
Year Month Day Hour Lat. Long. Pressure (hPa) Wind (kt) Class Image Chart
1975 12 2 00 -11.0 136.9 1000 25 2 -- --
1975 12 2 12 -11.5 136.9 995 35 3 -- --
1975 12 3 00 -12.3 136.8 992 45 3 -- --
1975 12 3 12 -12.5 136.4 996 30 2 -- --
1975 12 4 00 -12.4 136.0 1000 20 2 -- --
1975 12 4 12 -12.3 135.7 1000 20 2 -- --
1975 12 5 00 -12.2 135.4 1000 20 2 -- --
1975 12 5 12 -12.3 134.2 1000 20 2 -- --
1975 12 6 00 -13.2 133.0 1000 20 2 -- --
1975 12 7 23 -13.4 136.2 1000 20 2 -- --
1975 12 8 05 -12.9 136.7 997 20 2 -- --
1975 12 8 11 -12.6 137.3 997 25 2 -- --
1975 12 8 17 -12.3 138.0 996 30 2 -- --
1975 12 8 23 -12.2 138.7 994 40 3 -- --
1975 12 9 05 -12.1 139.3 990 45 3 -- --
1975 12 9 08 -12.1 139.7 990 45 3 -- --
1975 12 9 11 -12.4 140.0 990 45 3 -- --
1975 12 9 14 -12.8 140.4 992 40 3 -- --
1975 12 9 17 -13.4 141.0 994 40 3 -- --
1975 12 9 20 -14.1 141.5 995 35 3 -- --
1975 12 9 23 -14.7 142.0 995 35 3 -- --
1975 12 10 12 -15.8 142.5 1000 25 2 -- --
< Cyclone 197602 1976 Season Cyclone 197604 >

Help